Time;durP1;ratioP1;P1;durP2;ratioP2;P2;SDS_P1;SDS_P2;PMS_P1;PMS_P2;Temp;Humidity;BMP_temperature;BMP_pressure;BME280_temperature;BME280_humidity;BME280_pressure;Samples;Min_cycle;Max_cycle;Signal;HPM_P1;HPM_P2
2023/01/27 00:02:43;;;;;;;29.73;11.65;;;;;;;4.98;100.00;101223.28;8360020;28;20139;-56
2023/01/27 00:06:43;;;;;;;27.83;10.38;;;;;;;5.05;100.00;101224.66;8359904;28;20036;-53
2023/01/27 00:10:44;;;;;;;22.15;9.80;;;;;;;5.02;100.00;101222.16;8361326;28;20051;-56
2023/01/27 00:14:44;;;;;;;30.45;11.38;;;;;;;5.01;100.00;101225.78;8357251;28;20045;-56
2023/01/27 00:18:45;;;;;;;30.52;9.48;;;;;;;4.99;100.00;101225.00;8355965;28;20632;-56
2023/01/27 00:27:07;;;;;;;36.10;11.25;;;;;;;4.99;100.00;101230.38;8359909;28;20713;-57
2023/01/27 00:35:31;;;;;;;29.13;9.63;;;;;;;4.93;100.00;101244.97;8358067;28;20037;-57
2023/01/27 00:39:31;;;;;;;25.65;8.95;;;;;;;4.86;100.00;101245.41;8359701;28;20514;-57
2023/01/27 00:43:32;;;;;;;27.13;10.10;;;;;;;4.86;100.00;101237.38;8359290;28;20040;-57
2023/01/27 00:47:32;;;;;;;25.00;9.13;;;;;;;4.87;100.00;101239.97;8366056;28;20037;-54
2023/01/27 00:51:35;;;;;;;17.50;8.45;;;;;;;4.89;100.00;101242.56;8358646;28;20064;-55
2023/01/27 00:55:36;;;;;;;25.52;7.63;;;;;;;4.89;100.00;101242.56;8356401;28;20076;-56
2023/01/27 00:59:36;;;;;;;22.13;7.97;;;;;;;4.93;100.00;101241.44;8359151;28;20498;-56
2023/01/27 01:03:36;;;;;;;20.02;7.40;;;;;;;4.95;100.00;101247.56;8358727;28;20048;-57
2023/01/27 01:07:37;;;;;;;18.02;7.90;;;;;;;4.92;100.00;101247.75;8358968;28;20033;-57
2023/01/27 01:11:38;;;;;;;20.98;7.22;;;;;;;5.00;100.00;101257.06;8358782;28;20044;-53
2023/01/27 01:15:39;;;;;;;15.93;7.25;;;;;;;4.97;100.00;101259.09;8358536;28;20525;-54
2023/01/27 01:19:39;;;;;;;26.13;7.45;;;;;;;5.01;100.00;101263.31;8358209;28;20056;-53
2023/01/27 01:23:42;;;;;;;21.30;6.72;;;;;;;5.01;100.00;101263.31;8358514;28;20175;-51
2023/01/27 01:27:44;;;;;;;24.02;6.82;;;;;;;4.99;100.00;101275.91;8355794;28;20049;-53
2023/01/27 01:31:45;;;;;;;24.27;7.38;;;;;;;5.00;100.00;101269.63;8358802;28;20063;-54
2023/01/27 01:35:45;;;;;;;18.00;7.07;;;;;;;5.06;100.00;101272.78;8357318;28;20048;-53
2023/01/27 01:39:45;;;;;;;22.42;7.25;;;;;;;5.15;100.00;101279.44;8357789;28;20461;-52
2023/01/27 01:43:47;;;;;;;18.33;6.30;;;;;;;5.14;100.00;101275.91;8358224;28;20049;-51
2023/01/27 01:47:47;;;;;;;15.85;6.82;;;;;;;5.15;100.00;101272.28;8355373;28;20037;-52
2023/01/27 01:51:54;;;;;;;20.33;7.75;;;;;;;5.14;100.00;101275.03;8357311;28;20063;-54
2023/01/27 01:55:58;;;;;;;21.00;9.18;;;;;;;5.13;100.00;101281.38;8353402;28;20047;-53
2023/01/27 02:00:08;;;;;;;17.60;8.80;;;;;;;5.14;100.00;101269.69;8357349;28;20495;-52
2023/01/27 02:04:24;;;;;;;24.73;10.13;;;;;;;5.13;100.00;101286.72;8356685;28;20036;-51
2023/01/27 02:08:29;;;;;;;21.45;10.23;;;;;;;5.11;100.00;101283.25;8353031;28;20041;-54
2023/01/27 02:12:30;;;;;;;22.38;9.95;;;;;;;5.11;100.00;101291.28;8354289;28;20407;-50
2023/01/27 02:16:31;;;;;;;25.92;10.77;;;;;;;5.05;100.00;101287.16;8354988;28;20152;-53
2023/01/27 02:20:40;;;;;;;40.20;14.90;;;;;;;5.04;100.00;101280.09;8354900;28;20041;-53
2023/01/27 02:24:45;;;;;;;35.00;15.15;;;;;;;5.05;100.00;101281.78;8356342;28;20037;-52
2023/01/27 02:28:55;;;;;;;39.83;15.60;;;;;;;5.01;100.00;101280.25;8356130;28;20502;-53
2023/01/27 02:32:55;;;;;;;39.47;14.05;;;;;;;4.97;100.00;101278.69;8330044;28;20116;-53
2023/01/27 02:36:59;;;;;;;40.35;15.20;;;;;;;4.94;100.00;101288.72;8337895;28;20045;-54
2023/01/27 02:41:11;;;;;;;37.47;14.50;;;;;;;4.93;100.00;101286.97;8331459;28;20040;-51
2023/01/27 02:45:12;;;;;;;35.45;15.70;;;;;;;4.94;100.00;101292.25;8337193;28;20053;-54
2023/01/27 02:49:13;;;;;;;38.35;15.27;;;;;;;4.94;100.00;101296.75;8330469;28;20041;-53
2023/01/27 02:53:14;;;;;;;41.92;15.43;;;;;;;4.96;100.00;101300.19;8329937;28;20120;-53
2023/01/27 02:57:15;;;;;;;38.42;15.45;;;;;;;4.92;100.00;101294.16;8327957;28;20090;-53
2023/01/27 03:01:31;;;;;;;32.28;14.80;;;;;;;4.90;100.00;101297.84;8334729;28;20036;-51
2023/01/27 03:05:32;;;;;;;;;;;;;;;4.95;100.00;101301.16;8329919;28;20049;-52
2023/01/27 03:09:32;;;;;;;36.20;15.63;;;;;;;4.91;100.00;101310.31;8330883;28;19924;-54
2023/01/27 03:13:35;;;;;;;35.58;14.20;;;;;;;4.93;100.00;101308.41;8330538;28;20063;-53
2023/01/27 03:18:37;;;;;;;25.67;12.68;;;;;;;4.91;100.00;101313.00;8330069;28;20059;-54
2023/01/27 03:22:00;;;;;;;18.88;8.40;;;;;;;4.87;100.00;101320.34;8329078;28;20132;-53
2023/01/27 03:26:06;;;;;;;15.38;6.18;;;;;;;4.89;97.97;101323.81;8327017;28;20037;-54
2023/01/27 03:30:08;;;;;;;9.95;5.57;;;;;;;4.87;98.02;101324.81;8328720;28;20045;-53
2023/01/27 03:34:10;;;;;;;12.18;4.13;;;;;;;4.86;95.97;101323.09;8330733;28;20037;-52
2023/01/27 03:47:00;;;;;;;8.93;4.63;;;;;;;4.70;96.67;101323.06;8326329;28;20100;-56
2023/01/27 03:51:03;;;;;;;10.52;5.18;;;;;;;4.66;97.77;101321.50;8320063;28;20033;-57
2023/01/27 03:55:05;;;;;;;11.82;6.63;;;;;;;4.62;98.56;101313.72;8324589;28;20071;-57
2023/01/27 03:59:06;;;;;;;15.10;6.22;;;;;;;4.58;99.01;101322.88;8341643;28;20090;-57
2023/01/27 04:07:27;;;;;;;14.02;7.05;;;;;;;4.56;99.00;101325.66;8344935;28;20036;-57
2023/01/27 04:11:59;;;;;;;13.80;7.78;;;;;;;4.57;99.12;101329.19;8346637;28;20033;-57
2023/01/27 04:15:53;;;;;;;14.13;7.15;;;;;;;4.49;99.92;101320.72;8346316;28;20041;-57
2023/01/27 04:19:54;;;;;;;17.23;6.90;;;;;;;4.50;99.71;101322.44;8345310;28;20141;-57
2023/01/27 04:23:55;;;;;;;15.30;6.75;;;;;;;4.47;99.36;101325.25;8346074;28;20041;-57
2023/01/27 04:27:55;;;;;;;17.00;7.78;;;;;;;4.46;99.70;101335.13;8345358;28;20106;-57
2023/01/27 04:31:57;;;;;;;15.57;7.13;;;;;;;4.49;99.26;101329.63;8346515;28;20112;-57
2023/01/27 04:35:57;;;;;;;16.55;7.10;;;;;;;4.47;100.00;101333.31;8346021;28;20589;-58
2023/01/27 04:39:57;;;;;;;17.67;7.80;;;;;;;4.46;100.00;101334.25;8344795;28;20359;-56
2023/01/27 04:43:58;;;;;;;22.70;8.30;;;;;;;4.43;100.00;101334.41;8346198;28;20156;-59
2023/01/27 04:47:58;;;;;;;22.60;9.40;;;;;;;4.40;100.00;101348.84;8344408;28;20450;-57
2023/01/27 04:51:59;;;;;;;23.70;9.23;;;;;;;4.39;100.00;101344.41;8345599;28;20409;-56
2023/01/27 04:56:03;;;;;;;19.13;8.82;;;;;;;4.38;100.00;101352.53;8344683;28;20502;-57
2023/01/27 05:00:04;;;;;;;21.92;9.18;;;;;;;4.38;100.00;101349.84;8344896;28;20048;-55
2023/01/27 05:04:06;;;;;;;22.73;9.93;;;;;;;4.37;100.00;101348.13;8344774;28;20044;-57
2023/01/27 05:08:09;;;;;;;22.95;9.48;;;;;;;4.37;100.00;101356.16;8352835;28;20065;-55
2023/01/27 05:12:09;;;;;;;19.50;8.82;;;;;;;4.35;100.00;101353.56;8352950;28;20052;-57
2023/01/27 05:16:17;;;;;;;19.58;8.80;;;;;;;4.39;100.00;101356.97;8339714;28;20061;-57
2023/01/27 05:20:18;;;;;;;20.45;8.40;;;;;;;4.32;100.00;101361.75;8350189;28;20037;-57
2023/01/27 05:24:18;;;;;;;20.00;8.48;;;;;;;4.29;100.00;101366.38;8390587;28;20045;-57
2023/01/27 05:28:19;;;;;;;16.98;7.45;;;;;;;4.28;100.00;101364.66;8356962;28;20041;-57
2023/01/27 05:32:19;;;;;;;20.60;8.15;;;;;;;4.26;100.00;101361.19;8360361;28;20451;-55
2023/01/27 05:36:22;;;;;;;17.10;7.80;;;;;;;4.26;100.00;101369.22;8358890;28;20037;-57
2023/01/27 05:40:23;;;;;;;12.77;6.93;;;;;;;4.33;100.00;101376.00;8360000;28;20044;-57
2023/01/27 05:44:23;;;;;;;16.35;8.15;;;;;;;4.31;100.00;101383.25;8359858;28;20541;-57
2023/01/27 05:48:24;;;;;;;17.60;7.88;;;;;;;4.31;100.00;101377.88;8358657;28;20056;-55
2023/01/27 05:52:24;;;;;;;19.27;8.40;;;;;;;4.31;100.00;101377.88;8359337;28;20041;-57
2023/01/27 05:56:25;;;;;;;14.68;7.90;;;;;;;4.35;100.00;101384.81;8359088;28;20071;-56
2023/01/27 06:00:26;;;;;;;15.70;7.38;;;;;;;4.33;100.00;101386.72;8359111;28;20502;-57
2023/01/27 06:04:26;;;;;;;18.58;8.48;;;;;;;4.35;100.00;101384.81;8328102;28;20475;-57
2023/01/27 06:08:27;;;;;;;19.45;8.75;;;;;;;4.30;100.00;101392.22;8325953;28;20112;-57
2023/01/27 06:12:27;;;;;;;21.67;9.18;;;;;;;4.32;100.00;101385.84;8337276;28;20052;-56
2023/01/27 06:16:28;;;;;;;17.70;9.07;;;;;;;4.33;100.00;101389.41;8358600;28;20526;-55
2023/01/27 06:20:28;;;;;;;24.85;10.52;;;;;;;4.37;100.00;101390.97;8358565;28;20075;-56
2023/01/27 06:24:29;;;;;;;19.13;9.60;;;;;;;4.35;100.00;101390.16;8358041;28;20148;-56
2023/01/27 06:28:29;;;;;;;22.05;11.20;;;;;;;4.39;100.00;101381.03;8357466;28;20617;-58
2023/01/27 06:32:30;;;;;;;22.48;10.80;;;;;;;4.36;100.00;101391.91;8353005;28;20041;-57
2023/01/27 06:36:30;;;;;;;25.05;11.20;;;;;;;4.40;100.00;101388.13;8358154;28;20037;-57
2023/01/27 06:40:32;;;;;;;26.30;10.95;;;;;;;4.41;100.00;101389.84;8357809;28;20044;-60
2023/01/27 06:44:32;;;;;;;26.27;11.88;;;;;;;4.40;100.00;101389.00;8355296;28;20130;-58
2023/01/27 06:48:33;;;;;;;22.33;10.60;;;;;;;4.40;100.00;101396.16;8355053;28;20095;-55
2023/01/27 06:52:33;;;;;;;23.90;12.15;;;;;;;4.44;100.00;101401.25;8357131;28;20037;-56
2023/01/27 06:56:34;;;;;;;25.42;11.55;;;;;;;4.47;100.00;101413.63;8358181;28;20044;-58
2023/01/27 07:00:35;;;;;;;23.20;10.93;;;;;;;4.47;100.00;101414.50;8365411;28;20406;-59
2023/01/27 07:04:36;;;;;;;26.27;12.25;;;;;;;4.44;100.00;101411.09;8391976;28;20078;-59
2023/01/27 07:08:36;;;;;;;27.88;13.23;;;;;;;4.45;100.00;101418.19;8391016;28;20044;-58
2023/01/27 07:12:37;;;;;;;26.90;12.32;;;;;;;4.42;100.00;101423.72;8358380;28;20418;-58
2023/01/27 07:16:37;;;;;;;31.17;13.25;;;;;;;4.44;100.00;101417.31;8357110;28;20044;-58
2023/01/27 07:20:39;;;;;;;28.27;12.70;;;;;;;4.52;100.00;101419.59;8374926;28;20402;-59
2023/01/27 07:24:39;;;;;;;38.22;18.05;;;;;;;4.56;100.00;101421.16;8359640;28;20491;-59
2023/01/27 07:28:39;;;;;;;29.92;14.45;;;;;;;4.51;100.00;101417.88;8357255;28;20402;-58
2023/01/27 07:32:40;;;;;;;34.83;14.38;;;;;;;4.51;100.00;101423.25;8358149;28;20398;-57
2023/01/27 07:36:40;;;;;;;30.52;15.25;;;;;;;4.56;100.00;101426.53;8362987;28;20041;-58
2023/01/27 07:40:41;;;;;;;35.40;15.00;;;;;;;4.61;100.00;101430.72;8369994;28;20052;-58
2023/01/27 07:44:41;;;;;;;32.85;15.13;;;;;;;4.66;100.00;101433.16;8408152;28;20497;-59
2023/01/27 07:48:41;;;;;;;32.55;15.45;;;;;;;4.64;100.00;101437.69;8375983;28;20102;-59
2023/01/27 07:52:42;;;;;;;29.40;14.65;;;;;;;4.65;100.00;101439.44;8364439;28;20051;-59
2023/01/27 07:56:42;;;;;;;30.20;14.20;;;;;;;4.72;100.00;101448.84;8367819;28;20064;-58
2023/01/27 08:00:43;;;;;;;27.23;14.50;;;;;;;4.74;100.00;101452.34;8362863;28;20056;-59
2023/01/27 08:04:46;;;;;;;33.88;15.75;;;;;;;4.80;100.00;101442.16;8363722;28;20044;-59
2023/01/27 08:08:47;;;;;;;32.30;14.30;;;;;;;4.87;100.00;101448.06;8362938;28;20041;-59
2023/01/27 08:12:47;;;;;;;28.90;14.13;;;;;;;4.91;100.00;101449.63;8366148;28;20037;-59
2023/01/27 08:16:48;;;;;;;24.15;13.55;;;;;;;4.93;100.00;101447.72;8362705;28;20045;-57
2023/01/27 08:20:48;;;;;;;30.77;14.70;;;;;;;5.00;100.00;101449.16;8362902;28;20406;-58
2023/01/27 08:24:49;;;;;;;27.33;13.82;;;;;;;5.04;100.00;101440.88;8354579;28;20037;-59
2023/01/27 08:28:50;;;;;;;26.70;13.75;;;;;;;5.12;100.00;101449.31;8331925;28;20044;-58
2023/01/27 08:32:50;;;;;;;30.30;14.07;;;;;;;5.13;100.00;101445.72;8359068;28;20041;-59
2023/01/27 08:36:51;;;;;;;26.88;13.50;;;;;;;5.18;100.00;101449.00;8358604;28;20480;-58
2023/01/27 08:40:51;;;;;;;25.70;12.73;;;;;;;5.26;100.00;101451.25;8355068;28;20033;-58
2023/01/27 08:44:52;;;;;;;23.25;13.18;;;;;;;5.28;100.00;101457.41;8354835;28;20183;-58
2023/01/27 08:48:52;;;;;;;29.13;13.82;;;;;;;5.30;100.00;101450.13;8352107;28;20041;-52
2023/01/27 08:52:53;;;;;;;29.73;14.45;;;;;;;5.38;100.00;101451.47;8349913;28;20530;-56
2023/01/27 08:56:53;;;;;;;26.38;13.32;;;;;;;5.42;100.00;101449.44;8354057;28;20096;-59
2023/01/27 09:00:54;;;;;;;25.13;13.52;;;;;;;5.44;100.00;101450.25;8354517;28;20052;-55
2023/01/27 09:04:54;;;;;;;26.00;13.13;;;;;;;5.52;100.00;101456.06;8357007;28;20124;-56
2023/01/27 09:09:10;;;;;;;24.30;13.95;;;;;;;5.66;100.00;101454.31;8355746;28;20477;-58
2023/01/27 09:13:10;;;;;;;23.90;12.95;;;;;;;5.78;100.00;101455.44;8351802;28;20045;-56
2023/01/27 09:17:11;;;;;;;24.15;12.40;;;;;;;5.80;100.00;101453.53;8391129;28;20037;-58
2023/01/27 09:21:11;;;;;;;23.50;13.68;;;;;;;5.91;100.00;101467.22;8328544;28;20037;-59
2023/01/27 09:25:15;;;;;;;22.75;11.13;;;;;;;6.03;99.19;101471.88;8355532;28;20526;-55
2023/01/27 09:29:16;;;;;;;19.38;9.90;;;;;;;6.07;97.61;101460.00;8374729;28;20032;-58
2023/01/27 09:33:16;;;;;;;15.55;10.25;;;;;;;6.16;97.25;101466.69;8388881;28;20354;-59
2023/01/27 09:37:17;;;;;;;19.67;10.68;;;;;;;6.25;97.74;101464.31;8389768;28;20056;-57
2023/01/27 09:41:34;;;;;;;17.65;10.32;;;;;;;6.31;96.28;101469.31;8402990;28;20043;-58
2023/01/27 09:46:01;;;;;;;20.23;9.77;;;;;;;6.44;95.85;101477.53;8362098;28;20036;-59
2023/01/27 09:54:57;;;;;;;13.27;8.57;;;;;;;6.28;95.88;101482.91;8316777;28;20490;-54
2023/01/27 09:59:24;;;;;;;15.38;8.80;;;;;;;6.26;95.76;101484.84;8316937;28;20045;-58
2023/01/27 10:03:55;;;;;;;13.70;8.50;;;;;;;6.25;96.69;101493.00;8288927;28;20377;-56
2023/01/27 10:08:16;;;;;;;15.15;8.70;;;;;;;6.26;96.89;101498.28;8282899;28;20522;-58
2023/01/27 10:12:56;;;;;;;12.32;7.85;;;;;;;6.24;96.50;101497.50;8316372;28;20638;-58
2023/01/27 10:17:23;;;;;;;11.73;8.00;;;;;;;6.40;96.29;101490.25;8309335;28;20125;-57
2023/01/27 10:26:08;;;;;;;11.43;7.18;;;;;;;7.13;93.30;101490.22;8301055;28;20448;-58
2023/01/27 10:30:17;;;;;;;12.00;7.68;;;;;;;6.94;93.53;101496.81;8299880;28;20137;-58
2023/01/27 10:34:36;;;;;;;14.45;8.15;;;;;;;6.74;95.03;101497.19;8285286;28;20254;-58
2023/01/27 10:38:53;;;;;;;10.93;7.43;;;;;;;6.74;94.91;101508.78;8284582;28;20103;-57
2023/01/27 10:43:05;;;;;;;12.20;7.53;;;;;;;6.74;95.04;101495.34;8279201;28;20522;-57
2023/01/27 10:47:23;;;;;;;10.00;6.63;;;;;;;6.73;94.71;101501.69;8284394;28;20097;-56
2023/01/27 10:51:30;;;;;;;10.60;7.25;;;;;;;6.69;95.13;101502.84;8284349;28;20530;-58
2023/01/27 10:55:41;;;;;;;10.32;6.90;;;;;;;6.69;96.30;101500.16;8283161;28;20038;-57
2023/01/27 10:59:50;;;;;;;10.07;6.45;;;;;;;6.65;95.82;101503.97;8284916;28;20030;-57
2023/01/27 11:03:58;;;;;;;9.63;6.63;;;;;;;6.64;95.39;101506.72;8283937;28;20456;-57
2023/01/27 11:08:03;;;;;;;8.55;6.03;;;;;;;6.65;94.91;101503.97;8269848;28;20046;-55
2023/01/27 11:12:11;;;;;;;8.02;5.78;;;;;;;6.57;94.79;101498.19;8282718;28;20512;-55
2023/01/27 11:16:15;;;;;;;8.23;6.10;;;;;;;6.59;95.60;101492.72;8283463;28;20034;-58
2023/01/27 11:20:26;;;;;;;;;;;;;;;6.61;95.43;101497.03;8282419;28;20507;-57
2023/01/27 11:24:52;;;;;;;7.38;5.38;;;;;;;6.71;94.85;101484.78;8282459;28;19917;-58
2023/01/27 11:29:09;;;;;;;6.90;5.10;;;;;;;6.82;93.62;101490.38;8265629;28;20038;-52
2023/01/27 11:33:21;;;;;;;7.40;5.50;;;;;;;6.82;93.09;101485.00;8281929;28;20046;-56
2023/01/27 11:37:29;;;;;;;7.57;5.13;;;;;;;6.85;93.47;101474.06;8259552;28;20147;-58
2023/01/27 11:41:35;;;;;;;8.50;5.95;;;;;;;6.86;94.31;101470.41;8239396;28;20101;-56
2023/01/27 11:45:36;;;;;;;6.90;5.30;;;;;;;6.88;94.05;101479.25;8260841;28;20042;-56
2023/01/27 11:49:42;;;;;;;8.85;5.85;;;;;;;6.93;94.03;101471.78;8260786;28;20504;-57
2023/01/27 11:53:44;;;;;;;10.60;6.97;;;;;;;6.91;94.19;101468.31;8261088;28;20061;-54
2023/01/27 11:57:49;;;;;;;10.48;7.15;;;;;;;6.89;94.74;101464.00;8275727;28;20414;-55
2023/01/27 12:02:29;;;;;;;9.20;6.75;;;;;;;6.95;94.66;101467.16;8259845;28;20097;-57
2023/01/27 12:06:54;;;;;;;8.20;5.95;;;;;;;6.91;94.12;101462.94;8274869;28;20052;-57
2023/01/27 12:10:55;;;;;;;7.47;5.63;;;;;;;6.88;93.37;101451.50;8255541;28;20046;-58
2023/01/27 12:14:58;;;;;;;6.97;4.68;;;;;;;6.91;93.24;101452.19;8256216;28;20499;-58
2023/01/27 12:19:03;;;;;;;8.00;5.22;;;;;;;6.89;93.06;101464.84;8259907;28;20553;-57
2023/01/27 12:23:18;;;;;;;7.47;5.03;;;;;;;6.92;94.24;101450.38;8260376;28;20038;-56
2023/01/27 12:27:22;;;;;;;6.53;4.72;;;;;;;6.85;93.96;101447.19;8260088;28;20177;-58
2023/01/27 12:31:28;;;;;;;6.60;4.72;;;;;;;6.89;94.06;101443.34;8259883;28;20104;-50
2023/01/27 12:35:33;;;;;;;6.22;4.35;;;;;;;6.85;93.39;101439.13;8259358;28;20407;-55
2023/01/27 12:39:57;;;;;;;6.95;4.63;;;;;;;7.00;93.88;101432.81;8256929;28;20042;-57
2023/01/27 12:44:14;;;;;;;6.43;5.03;;;;;;;6.92;92.92;101426.19;8258976;28;20046;-56
2023/01/27 12:48:17;;;;;;;4.90;3.85;;;;;;;6.88;93.00;101425.50;8257732;28;20062;-58
2023/01/27 12:52:20;;;;;;;5.60;4.35;;;;;;;6.90;93.73;101418.22;8258863;28;20042;-57
2023/01/27 12:56:22;;;;;;;5.63;4.25;;;;;;;6.95;93.93;101416.09;8246408;28;20030;-57
2023/01/27 13:00:24;;;;;;;3.78;3.17;;;;;;;6.95;92.80;101412.56;8253795;28;20129;-55
2023/01/27 13:04:26;;;;;;;3.85;2.95;;;;;;;7.04;92.00;101415.50;8254844;28;20042;-58
2023/01/27 13:08:30;;;;;;;3.70;2.35;;;;;;;7.09;90.97;101421.47;8257397;28;20050;-53
2023/01/27 13:12:36;;;;;;;;;;;;;;;7.16;90.64;101425.50;8257770;28;20447;-58
2023/01/27 13:16:37;;;;;;;2.63;1.80;;;;;;;7.10;89.74;101423.19;8255198;28;20008;-58
2023/01/27 13:20:44;;;;;;;4.07;1.85;;;;;;;7.05;89.67;101425.31;8257241;28;20042;-57
2023/01/27 13:24:50;;;;;;;2.53;2.00;;;;;;;7.01;90.86;101421.09;8256362;28;20065;-56
2023/01/27 13:29:14;;;;;;;1.98;1.70;;;;;;;7.01;90.61;101431.84;8253877;28;20053;-55
2023/01/27 13:33:39;;;;;;;2.45;1.70;;;;;;;7.03;90.71;101431.75;8248814;28;20074;-55
2023/01/27 13:38:05;;;;;;;3.00;1.75;;;;;;;7.03;90.65;101438.00;8265893;28;20045;-56
2023/01/27 13:42:16;;;;;;;1.50;1.40;;;;;;;7.00;89.51;101440.88;8254389;28;20449;-60
2023/01/27 13:46:26;;;;;;;3.78;1.10;;;;;;;6.95;89.93;101448.34;8255263;28;20129;-54
2023/01/27 13:50:34;;;;;;;1.92;1.40;;;;;;;6.94;89.82;101452.00;8253720;28;20113;-58
2023/01/27 13:54:34;;;;;;;1.30;1.20;;;;;;;6.93;89.71;101455.66;8254040;28;20030;-57
2023/01/27 13:59:05;;;;;;;3.33;1.67;;;;;;;6.88;89.13;101452.38;8254101;28;20089;-56
2023/01/27 14:03:33;;;;;;;1.42;1.33;;;;;;;6.88;89.40;101457.75;8241212;28;20038;-59
2023/01/27 14:07:57;;;;;;;1.65;1.45;;;;;;;6.85;89.15;101457.94;8242934;28;20046;-58
2023/01/27 14:12:26;;;;;;;4.67;1.57;;;;;;;6.86;88.82;101454.28;8247406;28;20047;-57
2023/01/27 14:16:51;;;;;;;2.83;1.65;;;;;;;6.86;88.86;101462.34;8244641;28;20365;-57
2023/01/27 14:21:19;;;;;;;2.35;1.73;;;;;;;6.87;89.94;101465.91;8253618;28;20069;-57
2023/01/27 14:25:42;;;;;;;3.00;2.10;;;;;;;6.81;90.99;101461.78;8254443;28;20038;-58
2023/01/27 14:30:01;;;;;;;4.78;3.20;;;;;;;6.76;92.11;101469.25;8251921;28;20133;-58
2023/01/27 14:34:14;;;;;;;3.33;3.03;;;;;;;6.70;92.45;101482.19;8255189;28;20125;-58
2023/01/27 14:38:31;;;;;;;3.80;3.20;;;;;;;6.67;93.07;101477.88;8254568;28;20042;-56
2023/01/27 14:46:58;;;;;;;6.25;3.28;;;;;;;6.60;93.63;101484.59;8393583;27;20866;-57
2023/01/27 14:51:23;;;;;;;5.25;3.58;;;;;;;6.60;92.86;101489.09;8379137;28;20037;-55
2023/01/27 14:55:35;;;;;;;4.07;3.20;;;;;;;6.59;92.08;101492.72;8417762;27;20086;-55
2023/01/27 14:59:47;;;;;;;3.92;2.83;;;;;;;6.60;91.16;101495.31;8363429;28;20043;-57
2023/01/27 15:04:13;;;;;;;4.53;3.38;;;;;;;6.59;91.00;101492.72;8390520;27;20047;-55
2023/01/27 15:08:35;;;;;;;6.90;3.60;;;;;;;6.58;91.64;101491.84;8432552;27;20685;-55
2023/01/27 15:21:56;;;;;;;8.43;6.20;;;;;;;6.51;93.50;101506.63;8348003;27;20362;-57
2023/01/27 15:25:59;;;;;;;10.25;7.38;;;;;;;6.43;93.59;101522.31;8313745;28;20044;-53
2023/01/27 15:30:21;;;;;;;8.82;6.22;;;;;;;6.44;93.43;101526.75;8315532;28;20384;-57
2023/01/27 15:34:22;;;;;;;6.55;5.40;;;;;;;6.43;92.19;101516.94;8314325;28;20403;-57
2023/01/27 15:38:32;;;;;;;4.47;3.17;;;;;;;6.45;90.21;101539.22;8315066;28;20110;-56
2023/01/27 15:42:51;;;;;;;4.07;3.50;;;;;;;6.45;90.02;101541.91;8348088;28;20053;-52
2023/01/27 15:46:54;;;;;;;4.53;3.28;;;;;;;6.48;89.79;101547.09;8344684;28;20041;-57
2023/01/27 15:51:02;;;;;;;4.65;3.35;;;;;;;6.47;89.63;101553.44;8308895;28;20470;-57
2023/01/27 15:55:04;;;;;;;3.33;3.03;;;;;;;6.44;89.24;101556.28;8314669;28;20117;-57
2023/01/27 15:59:10;;;;;;;4.90;2.78;;;;;;;6.45;88.90;101555.31;8314201;28;20120;-65
2023/01/27 16:03:21;;;;;;;3.95;2.97;;;;;;;6.48;88.95;101560.53;8315832;28;20038;-57
2023/01/27 16:07:29;;;;;;;3.70;2.60;;;;;;;6.43;88.94;101565.28;8362367;28;20033;-55
2023/01/27 16:15:42;;;;;;;2.85;2.10;;;;;;;6.39;87.91;101571.78;8409116;27;20348;-57
2023/01/27 16:20:14;;;;;;;11.98;2.88;;;;;;;6.36;88.77;101580.03;8410599;28;20608;-56
2023/01/27 16:24:25;;;;;;;2.67;1.83;;;;;;;6.30;86.94;101591.13;8394209;28;20033;-58
2023/01/27 16:28:28;;;;;;;3.97;2.05;;;;;;;6.31;86.18;101590.16;8415820;28;20040;-55
2023/01/27 16:32:36;;;;;;;2.22;2.03;;;;;;;6.29;86.59;101586.72;8415485;28;20044;-57
2023/01/27 16:36:37;;;;;;;3.88;2.15;;;;;;;6.31;85.72;101592.00;8411659;28;20039;-57
2023/01/27 16:40:38;;;;;;;3.50;2.35;;;;;;;6.25;86.22;101595.88;8434586;28;20562;-58
2023/01/27 16:44:44;;;;;;;2.88;2.58;;;;;;;6.22;87.14;101598.72;8408082;28;20278;-54
2023/01/27 16:48:45;;;;;;;3.38;2.20;;;;;;;6.20;87.58;101614.09;8408447;28;20409;-57
2023/01/27 16:52:46;;;;;;;3.03;2.72;;;;;;;6.19;86.49;101612.31;8398717;28;20063;-57
2023/01/27 16:56:50;;;;;;;5.25;2.40;;;;;;;6.19;86.85;101617.69;8398702;28;20041;-57
2023/01/27 17:00:51;;;;;;;2.47;1.90;;;;;;;6.15;87.20;101624.19;8411576;28;20047;-56
2023/01/27 17:04:55;;;;;;;2.55;2.25;;;;;;;6.14;87.30;101619.78;8395505;28;20037;-56
2023/01/27 17:08:55;;;;;;;4.28;2.85;;;;;;;6.11;88.02;101633.38;8345069;28;20045;-57
2023/01/27 17:12:56;;;;;;;5.88;3.42;;;;;;;6.08;88.03;101625.50;8360291;28;20045;-57
2023/01/27 17:16:59;;;;;;;5.03;3.97;;;;;;;6.04;89.48;101629.31;8393596;27;20031;-56
2023/01/27 17:21:01;;;;;;;4.28;3.88;;;;;;;6.05;89.41;101631.03;8378981;28;20076;-54
2023/01/27 17:25:06;;;;;;;4.95;3.70;;;;;;;5.97;90.00;101628.78;8364057;28;20037;-57
2023/01/27 17:29:13;;;;;;;4.45;3.80;;;;;;;5.99;90.89;101636.75;8358462;28;20072;-57
2023/01/27 17:33:18;;;;;;;7.22;5.25;;;;;;;5.93;91.49;101635.28;8390588;28;20033;-57
2023/01/27 17:37:20;;;;;;;7.95;6.72;;;;;;;5.91;92.34;101636.28;8363461;28;20401;-57
2023/01/27 17:41:33;;;;;;;8.60;6.55;;;;;;;5.85;93.40;101644.66;8421115;28;20036;-57
2023/01/27 17:45:33;;;;;;;10.93;7.70;;;;;;;5.83;94.22;101641.22;8354272;28;20049;-52
2023/01/27 17:49:37;;;;;;;10.10;6.95;;;;;;;5.83;94.02;101651.97;8351493;28;20483;-53
2023/01/27 17:53:40;;;;;;;9.48;7.53;;;;;;;5.81;93.64;101648.44;8336631;28;20091;-52
2023/01/27 17:57:41;;;;;;;9.98;7.72;;;;;;;5.81;94.48;101648.44;8401612;28;20067;-52
2023/01/27 18:01:41;;;;;;;10.10;7.43;;;;;;;5.78;94.65;101651.28;8367584;28;20052;-53
2023/01/27 18:05:44;;;;;;;9.40;6.82;;;;;;;5.77;94.67;101653.09;8355401;28;20520;-54
2023/01/27 18:09:51;;;;;;;10.60;6.28;;;;;;;5.77;94.11;101646.88;8339346;28;20045;-53
2023/01/27 18:13:53;;;;;;;12.00;7.00;;;;;;;5.76;94.06;101658.53;8341140;28;20037;-54
2023/01/27 18:17:58;;;;;;;11.70;6.97;;;;;;;5.76;94.60;101653.19;8330295;28;20052;-53
2023/01/27 18:22:03;;;;;;;12.80;6.90;;;;;;;5.73;95.19;101656.91;8341816;28;20333;-52
2023/01/27 18:26:17;;;;;;;8.52;7.18;;;;;;;5.69;95.14;101654.47;8353637;28;20040;-53
2023/01/27 18:30:20;;;;;;;11.45;8.07;;;;;;;5.68;95.52;101658.13;8352681;28;20410;-51
2023/01/27 18:34:30;;;;;;;13.82;9.32;;;;;;;5.63;96.14;101666.41;8353934;28;20709;-53
2023/01/27 18:38:31;;;;;;;15.13;10.32;;;;;;;5.61;96.81;101673.66;8351617;28;20049;-53
2023/01/27 18:42:31;;;;;;;17.83;9.90;;;;;;;5.59;97.46;101675.56;8328047;28;20038;-54
2023/01/27 18:46:33;;;;;;;12.05;8.95;;;;;;;5.60;97.18;101665.69;8344108;28;20091;-54
2023/01/27 18:50:40;;;;;;;14.35;9.40;;;;;;;5.53;97.51;101664.28;8331156;28;20049;-53
2023/01/27 18:54:40;;;;;;;15.60;9.98;;;;;;;5.51;98.07;101674.22;8325941;28;20044;-53
2023/01/27 18:58:41;;;;;;;14.40;9.80;;;;;;;5.47;98.60;101675.34;8334009;28;20037;-50
2023/01/27 19:02:45;;;;;;;15.98;10.35;;;;;;;5.44;98.78;101675.50;8333024;28;20052;-52
2023/01/27 19:06:45;;;;;;;17.40;11.35;;;;;;;5.41;99.06;101686.38;8342703;28;20049;-52
2023/01/27 19:10:47;;;;;;;20.38;11.50;;;;;;;5.39;99.22;101683.78;8343516;28;20083;-55
2023/01/27 19:14:48;;;;;;;19.75;11.90;;;;;;;5.41;99.52;101684.56;8352173;28;20052;-57
2023/01/27 19:18:48;;;;;;;20.23;12.75;;;;;;;5.44;99.00;101691.59;8350673;28;20048;-56
2023/01/27 19:22:51;;;;;;;22.25;13.02;;;;;;;5.43;99.43;101681.81;8351073;28;20082;-58
2023/01/27 19:26:54;;;;;;;18.98;12.18;;;;;;;5.43;99.00;101695.22;8368701;28;20067;-56
2023/01/27 19:30:54;;;;;;;20.13;12.13;;;;;;;5.43;99.41;101684.50;8366759;28;20053;-54
2023/01/27 19:34:55;;;;;;;20.73;13.05;;;;;;;5.44;99.25;101692.47;8378020;28;20071;-56
2023/01/27 19:39:16;;;;;;;21.63;13.40;;;;;;;5.41;99.42;101687.25;8368589;28;20547;-57
2023/01/27 19:43:16;;;;;;;22.02;13.40;;;;;;;5.41;98.92;101683.69;8384077;28;20401;-57
2023/01/27 19:47:17;;;;;;;21.60;13.35;;;;;;;5.41;98.43;101681.00;8384378;28;20101;-54